Flight Track Log - Related Links

Times and Time Zones

All times are in EDT time to prevent confusion due to time zone crossing. See the VEC5204 flight status page for this flight to view local times or setup timezone preferences in your user account.

Time Position Orientation Groundspeed Altitude Reporting Facility
EDT Latitude Longitude Course Direction KTS MPH feet Rate Location/Type
Mon 01:10:27 PM 19.1378 -72.6592 325° Northwest 481 554 40,000  Level Miami Center
Mon 01:11:27 PM 19.2478 -72.7194 333° Northwest 466 536 40,000  Level Miami Center
Mon 01:12:00 PM 10.2407 -67.9936 325° Northwest  Level Estimated
Mon 01:12:27 PM 19.3494 -72.7758 332° Northwest 433 498 40,000  Level Miami Center
Mon 01:13:00 PM 10.3317 -68.0588 325° Northwest  Level Estimated
Mon 01:13:27 PM 19.4508 -72.8344 331° Northwest 417 480 40,000  Level Miami Center
Mon 01:14:00 PM 10.4227 -68.1241 325° Northwest  Level Estimated
Mon 01:14:27 PM 19.5544 -72.8886 334° Northwest 410 472 40,000  Level Miami Center
Mon 01:15:00 PM 10.5136 -68.1894 325° Northwest  Level Estimated
Mon 01:15:27 PM 19.6558 -72.9475 331° Northwest 410 472 40,000  Level Miami Center
Mon 01:16:00 PM 10.6046 -68.2548 325° Northwest  Level Estimated
Mon 01:16:27 PM 19.7572 -73.0019 333° Northwest 417 480 40,000  Level Miami Center
Mon 01:17:27 PM 19.8608 -73.0606 332° Northwest 417 480 40,000  Level Miami Center
Mon 01:18:27 PM 19.9667 -73.1194 332° Northwest 417 480 40,000  Level Miami Center
Mon 01:19:27 PM 20.0661 -73.1764 332° Northwest 417 480 40,000  Level Miami Center
Mon 01:20:27 PM 20.1694 -73.2333 333° Northwest 422 486 40,000  Level Miami Center
Mon 01:21:27 PM 20.2689 -73.2972 329° Northwest 422 486 40,000  Level Miami Center
Mon 01:22:27 PM 20.3522 -73.3747 319° Northwest 417 480 40,000  Level Miami Center
Mon 01:23:27 PM 20.4394 -73.4564 319° Northwest 412 474 40,000  Level Miami Center
Mon 01:24:27 PM 20.5247 -73.5342 320° Northwest 407 468 40,000  Level Miami Center
Mon 01:25:27 PM 20.6119 -73.6139 319° Northwest 407 468 40,000  Level Miami Center
Mon 01:26:27 PM 20.6906 -73.6875 319° Northwest 407 468 40,000  Level Miami Center
Mon 01:27:27 PM 20.7778 -73.7653 320° Northwest 407 468 40,000  Level Miami Center
Mon 01:28:27 PM 20.8606 -73.8433 319° Northwest 407 468 40,000  Level Miami Center
Mon 01:29:27 PM 20.9519 -73.9258 320° Northwest 412 474 40,000  Level Miami Center
Mon 01:30:27 PM 21.0369 -74.0039 319° Northwest 407 468 40,000  Level Miami Center
Mon 01:31:27 PM 21.1219 -74.0822 319° Northwest 407 468 40,000  Level Miami Center
Mon 01:32:27 PM 21.2067 -74.1606 319° Northwest 407 468 40,000  Level Miami Center
Mon 01:33:27 PM 21.2936 -74.2436 318° Northwest 407 468 40,000  Level Miami Center
Mon 01:34:27 PM 21.3806 -74.3200 321° Northwest 407 468 40,000  Level Miami Center
Mon 01:35:27 PM 21.4675 -74.4031 318° Northwest 407 468 40,000  Level Miami Center
Mon 01:36:27 PM 21.5544 -74.4817 320° Northwest 407 468 40,000  Level Miami Center
Mon 01:37:27 PM 21.6411 -74.5606 320° Northwest 412 474 40,000  Level Miami Center
Mon 01:38:27 PM 21.7258 -74.6419 318° Northwest 412 474 40,000  Level Miami Center
Mon 01:39:27 PM 21.8086 -74.7233 318° Northwest 407 468 40,000  Level Miami Center
Mon 01:40:27 PM 21.8931 -74.8003 320° Northwest 402 463 40,000  Level Miami Center
Mon 01:41:27 PM 21.9800 -74.8817 319° Northwest 402 463 40,000  Level Miami Center
Mon 01:42:27 PM 22.0644 -74.9633 318° Northwest 402 463 40,000  Level Miami Center
Mon 01:43:27 PM 22.1511 -75.0428 320° Northwest 402 463 40,000  Level Miami Center
Mon 01:44:27 PM 22.2378 -75.1336 316° Northwest 402 463 40,000  Level Miami Center
Mon 01:45:27 PM 22.3097 -75.2314 309° West 397 457 40,000  Level Miami Center
Mon 01:46:27 PM 22.3756 -75.3272 307° West 402 463 40,000  Level Miami Center
Mon 01:47:27 PM 22.4433 -75.4231 307° West 402 463 40,000  Level Miami Center
Mon 01:48:27 PM 22.5133 -75.5233 307° West 407 468 40,000  Level Miami Center
Mon 01:49:27 PM 22.5808 -75.6172 308° West 407 468 40,000  Level Miami Center
Mon 01:51:27 PM 22.7183 -75.8117 307° West 407 468 40,000  Level Miami Center
Mon 01:52:27 PM 22.7858 -75.9081 307° West 402 463 40,000  Level Miami Center
Mon 01:53:27 PM 22.8531 -76.0044 307° West 407 468 40,000  Level Miami Center
Mon 01:54:27 PM 22.9225 -76.0989 309° West 407 468 40,000  Level Miami Center
Mon 01:55:27 PM 22.9900 -76.1956 307° West 402 463 40,000  Level Miami Center
Mon 01:56:27 PM 23.0550 -76.2900 307° West 402 463 40,000  Level Miami Center
Mon 01:57:27 PM 23.1244 -76.3867 308° West 407 468 40,000  Level Miami Center
Mon 01:58:27 PM 23.1917 -76.4814 308° West 407 468 40,000  Level Miami Center
Mon 01:59:27 PM 23.2586 -76.5786 307° West 407 468 40,000  Level Miami Center
Mon 02:00:27 PM 23.3278 -76.6756 308° West 407 468 40,000  Level Miami Center
Mon 02:01:28 PM 23.3864 -76.7639 306° West 407 468 40,000  Level Miami Center
Mon 02:02:27 PM 23.4553 -76.8589 308° West 402 463 40,000  Level Miami Center
Mon 02:03:27 PM 23.5222 -76.9564 307° West 407 468 40,000  Level Miami Center
Mon 02:04:27 PM 23.5911 -77.0517 308° West 453 521 40,000  Level Miami Center
Mon 02:05:27 PM 23.6850 -77.1219 326° Northwest 427 491 40,000  Level Miami Center
Mon 02:06:27 PM 23.7831 -77.1836 330° Northwest 409 471 40,000  Level Miami Center
Mon 02:07:27 PM 23.8833 -77.2431 332° Northwest 409 471 40,000  Level Miami Center
Mon 02:08:27 PM 23.9667 -77.3228 319° Northwest 409 471 40,000  Level Miami Center
Mon 02:09:27 PM 24.0269 -77.4253 303° West 392 451 40,000  Level Miami Center
Mon 02:10:27 PM 24.0892 -77.5236 305° West 398 458 40,000  Level Miami Center
Mon 02:11:27 PM 24.1494 -77.6264 303° West 403 464 40,000  Level Miami Center
Mon 02:12:27 PM 24.2114 -77.7292 303° West 403 464 40,000  Level Miami Center
Mon 02:13:27 PM 24.2714 -77.8300 303° West 398 458 40,000  Level Miami Center
Mon 02:14:27 PM 24.3333 -77.9308 304° West 398 458 40,000  Level Miami Center
Mon 02:15:27 PM 24.3911 -78.0339 302° West 398 458 40,000  Level Miami Center
Mon 02:16:27 PM 24.4531 -78.1350 304° West 393 452 40,000 -500 Level Miami Center
Mon 02:17:27 PM 24.4647 -78.2469 277° West 374 430 39,000 -800 Descending Miami Center
Mon 02:18:27 PM 24.4508 -78.3656 263° West 374 430 38,400 -800 Descending Miami Center
Mon 02:19:27 PM 24.4331 -78.4839 261° West 384 442 37,400 -950 Descending Miami Center
Mon 02:20:27 PM 24.4253 -78.6072 266° West 397 457 36,500 -800 Descending Miami Center
Mon 02:21:27 PM 24.4114 -78.7303 263° West 403 464 35,800 -1,200 Descending Miami Center
Mon 02:22:27 PM 24.4581 -78.8358 296° West 395 455 34,100 -1,350 Descending Miami Center
Mon 02:23:27 PM 24.5550 -78.9242 320° Northwest 396 456 33,100 -850 Descending Miami Center
Mon 02:24:27 PM 24.6436 -79.0103 319° Northwest 411 473 32,400 -650 Descending Miami Center
Mon 02:25:27 PM 24.7344 -79.0897 322° Northwest 418 481 31,800 -700 Descending Miami Center
Mon 02:26:27 PM 24.8231 -79.1758 319° Northwest 423 487 31,000 -900 Descending Miami Center
Mon 02:27:27 PM 24.9114 -79.2578 320° Northwest 423 487 30,000 -2,050 Descending Miami Center
Mon 02:28:27 PM 24.9897 -79.3350 318° Northwest 404 465 26,900 -3,000 Descending Miami Center
Mon 02:29:27 PM 25.0614 -79.4075 318° Northwest 373 429 24,000 -3,050 Descending Miami Center
Mon 02:30:27 PM 25.1356 -79.4756 320° Northwest 356 410 20,800 -3,250 Descending Miami Center
Mon 02:31:27 PM 25.2011 -79.5414 318° Northwest 334 384 17,500 -2,854 Descending Miami Center
Mon 02:32:10 PM 25.2525 -79.5953 317° Northwest 320 368 15,900 -2,000 Descending Miami Center
Mon 02:32:27 PM 25.2689 -79.6072 327° Northwest 328 377 15,500 -1,814 Descending Miami Center
Mon 02:32:53 PM 25.2975 -79.6400 314° West 319 367 14,600 -1,900 Descending Miami Center
Mon 02:33:27 PM 25.3347 -79.6683 325° Northwest 323 372 13,600 -2,000 Descending Miami Center
Mon 02:33:59 PM 25.3736 -79.7131 314° West 310 357 12,400 -1,600 Descending Miami Center
Mon 02:34:27 PM 25.3961 -79.7342 320° Northwest 312 359 12,000 -689 Descending Miami Center
Mon 02:35:00 PM 25.4244 -79.7831 303° West 293 337 11,700 -800 Descending Miami Center
Mon 02:35:27 PM 25.4447 -79.8067 314° West 304 350 11,200 -1,082 Descending Miami Center
Mon 02:36:01 PM 25.4711 -79.8533 302° West 288 331 10,600 -900 Descending Miami Center
Mon 02:36:27 PM 25.4894 -79.8767 311° West 291 335 10,300 -643 Descending Miami Center
Mon 02:36:57 PM 25.5156 -79.9211 303° West 282 325 10,000 -300 Descending Miami Center
Mon 02:37:27 PM 25.5339 -79.9469 308° West 286 329 10,000  Level Miami Center
Mon 02:37:58 PM 25.5561 -79.9819 305° West 248 285 10,000  Level Miami Center
Mon 02:38:27 PM 25.5744 -80.0078 308° West 266 306 10,000  Level Miami Center
Mon 02:38:58 PM 25.6006 -80.0522 303° West 254 292 10,000  Level Miami Center
Mon 02:39:27 PM 25.6169 -80.0689 317° Northwest 261 300 10,000  Level Miami Center
Mon 02:40:06 PM 25.6472 -80.1181 304° West 253 291 10,000  Level Miami Center
Mon 02:40:27 PM 25.6594 -80.1322 314° West 261 300 10,000 -393 Level Miami Center
Mon 02:41:07 PM 25.7025 -80.1611 329° Northwest 248 285 9,600 -700 Descending Miami Center
Mon 02:41:27 PM 25.7233 -80.1664 347° North 254 292 9,300 -896 Descending Miami Center
Mon 02:42:14 PM 25.7769 -80.1956 334° Northwest 247 284 8,600 -813 Descending Miami Center
Mon 02:43:03 PM 25.8286 -80.2175 339° North 240 276 8,000 -716 Descending Miami Center
Mon 02:44:03 PM 25.8886 -80.2494 334° Northwest 242 278 7,300 -1,339 Descending Miami Center
Mon 02:45:04 PM 25.9228 -80.3081 303° West 231 266 5,300 -1,659 Descending Miami Center
Mon 02:46:06 PM 25.9356 -80.3822 281° West 229 264 3,900 -1,082 Descending Miami Center
Mon 02:47:06 PM 25.9297 -80.4514 265° West 220 253 3,100 -443 Descending Miami Center
Mon 02:48:08 PM 25.9014 -80.5014 238° Southwest 211 243 3,000 -49 Descending Miami Center
Mon 02:49:08 PM 25.8733 -80.4544 124° Southeast 194 223 3,000 -541 Level Miami Center
Mon 02:50:21 PM 25.8433 -80.3933 119° Southeast 196 226 1,800 -984 Descending Miami Center
Mon 02:51:16 PM 25.8194 -80.3467 120° Southeast 159 183 900 -776 Descending Miami Center
Mon 02:52:17 PM 25.8033 -80.3161 120° Southeast 112 129 300 -590 Descending Miami Center

Login

Don't have an account? Register now (free) for customized features, flight alerts, and more!